Time;durP1;ratioP1;P1;durP2;ratioP2;P2;SDS_P1;SDS_P2;PMS_P1;PMS_P2;Temp;Humidity;BMP_temperature;BMP_pressure;BME280_temperature;BME280_humidity;BME280_pressure;Samples;Min_cycle;Max_cycle;Signal;HPM_P1;HPM_P2
2022/12/02 00:01:20;;;;;;;40.17;14.02;;;5.20;99.90;;;;;;4993660;28;20069;-66
2022/12/02 00:03:46;;;;;;;41.50;14.82;;;5.30;99.90;;;;;;4995412;28;20034;-67
2022/12/02 00:06:25;;;;;;;51.80;15.07;;;5.40;99.90;;;;;;4993537;28;20023;-66
2022/12/02 00:08:53;;;;;;;42.42;14.65;;;5.30;99.90;;;;;;4994755;28;20105;-66
2022/12/02 00:11:27;;;;;;;47.70;14.52;;;5.30;99.90;;;;;;4995100;28;20037;-66
2022/12/02 00:13:55;;;;;;;43.05;14.77;;;5.40;99.90;;;;;;5018768;22;20042;-68
2022/12/02 00:16:23;;;;;;;46.35;15.65;;;5.40;99.90;;;;;;4994726;28;20022;-68
2022/12/02 00:18:49;;;;;;;44.75;15.82;;;5.30;99.90;;;;;;4993712;28;20062;-68
2022/12/02 00:21:15;;;;;;;44.72;14.32;;;5.20;99.90;;;;;;4995020;28;20097;-68
2022/12/02 00:23:41;;;;;;;48.05;15.13;;;4.90;99.90;;;;;;4994477;28;20106;-68
2022/12/02 00:26:07;;;;;;;54.30;16.75;;;4.80;99.90;;;;;;4993499;28;20054;-68
2022/12/02 00:28:32;;;;;;;48.30;15.80;;;4.90;99.90;;;;;;4993471;28;20029;-68
2022/12/02 00:30:58;;;;;;;49.85;15.95;;;4.80;99.90;;;;;;4993437;28;20029;-68
2022/12/02 00:33:23;;;;;;;40.08;13.85;;;4.90;99.90;;;;;;4993124;28;20076;-68
2022/12/02 00:35:49;;;;;;;48.13;15.25;;;5.00;99.90;;;;;;4993602;28;20061;-68
2022/12/02 00:38:15;;;;;;;51.88;17.25;;;5.10;99.90;;;;;;4994427;28;20474;-68
2022/12/02 00:40:40;;;;;;;44.55;13.93;;;5.20;99.90;;;;;;4993437;28;20027;-68
2022/12/02 00:48:34;;;;;;;44.85;15.55;;;5.30;99.90;;;;;;4994804;28;20113;-68
2022/12/02 00:51:00;;;;;;;49.63;15.95;;;5.20;99.90;;;;;;4994114;28;20054;-68
2022/12/02 00:53:25;;;;;;;45.38;14.52;;;5.30;99.90;;;;;;4994293;28;20029;-68
2022/12/02 00:55:51;;;;;;;46.50;14.48;;;5.40;99.90;;;;;;4993417;28;20026;-69
2022/12/02 00:58:17;;;;;;;39.15;13.43;;;5.20;99.90;;;;;;4994419;28;20500;-68
2022/12/02 01:00:42;;;;;;;46.70;15.10;;;5.20;99.90;;;;;;4993985;28;20086;-69
2022/12/02 01:03:08;;;;;;;41.88;13.80;;;5.30;99.90;;;;;;4994465;28;20052;-69
2022/12/02 01:05:34;;;;;;;44.05;15.35;;;5.20;99.90;;;;;;4993823;28;20077;-69
2022/12/02 01:07:59;;;;;;;47.05;14.82;;;5.30;99.90;;;;;;4993337;28;20022;-69
2022/12/02 01:10:25;;;;;;;42.30;13.73;;;5.20;99.90;;;;;;4993205;28;20478;-69
2022/12/02 01:12:51;;;;;;;39.83;14.40;;;5.30;99.90;;;;;;4993730;28;20030;-69
2022/12/02 01:15:16;;;;;;;43.08;14.15;;;5.40;99.90;;;;;;4994700;28;20121;-69
2022/12/02 01:17:42;;;;;;;42.33;14.32;;;5.30;99.90;;;;;;4992455;28;20022;-68
2022/12/02 01:20:35;;;;;;;46.92;14.65;;;5.40;99.90;;;;;;4992534;28;20098;-68
2022/12/02 01:23:01;;;;;;;42.40;13.32;;;5.40;99.90;;;;;;4994093;28;20025;-68
2022/12/02 01:25:27;;;;;;;45.00;13.32;;;5.40;99.90;;;;;;4993838;28;20034;-68
2022/12/02 01:27:52;;;;;;;38.60;13.98;;;5.20;99.90;;;;;;4992693;28;20030;-68
2022/12/02 01:30:18;;;;;;;39.85;13.93;;;5.20;99.90;;;;;;4992495;28;20077;-68
2022/12/02 01:32:43;;;;;;;37.13;13.35;;;5.00;99.90;;;;;;4992822;28;20030;-68
2022/12/02 01:35:09;;;;;;;42.53;14.85;;;5.00;99.90;;;;;;4992799;28;20160;-68
2022/12/02 01:37:35;;;;;;;44.00;14.77;;;5.10;99.90;;;;;;4992900;28;20055;-68
2022/12/02 01:40:00;;;;;;;46.72;15.50;;;5.20;99.90;;;;;;4992724;28;20030;-68
2022/12/02 01:42:26;;;;;;;40.58;14.65;;;5.00;99.90;;;;;;4993615;28;20034;-68
2022/12/02 01:44:52;;;;;;;39.22;14.35;;;5.00;99.90;;;;;;4992325;28;20027;-68
2022/12/02 01:47:18;;;;;;;45.67;15.52;;;5.10;99.90;;;;;;4992425;28;20072;-68
2022/12/02 01:49:44;;;;;;;44.65;14.52;;;5.20;99.90;;;;;;4994209;28;20023;-68
2022/12/02 01:52:09;;;;;;;40.03;13.77;;;5.00;99.90;;;;;;4992990;28;20026;-68
2022/12/02 01:54:35;;;;;;;37.70;12.95;;;5.00;99.90;;;;;;4992302;28;20023;-68
2022/12/02 01:57:01;;;;;;;42.65;14.25;;;5.00;99.90;;;;;;4993259;28;20042;-68
2022/12/02 01:59:27;;;;;;;47.65;15.50;;;4.90;99.90;;;;;;4992273;28;20030;-68
2022/12/02 02:01:52;;;;;;;41.35;14.73;;;5.10;99.90;;;;;;4994110;28;20023;-68
2022/12/02 02:04:18;;;;;;;43.40;14.48;;;5.00;99.90;;;;;;4993532;28;20038;-68
2022/12/02 02:06:46;;;;;;;41.90;13.73;;;4.90;99.90;;;;;;4992634;28;20181;-68
2022/12/02 02:09:12;;;;;;;47.47;15.75;;;4.80;99.90;;;;;;4992309;28;20023;-68
2022/12/02 02:11:40;;;;;;;44.58;15.30;;;4.80;99.90;;;;;;4995204;28;20117;-68
2022/12/02 02:14:08;;;;;;;54.17;14.75;;;5.10;99.90;;;;;;4997000;28;20034;-68
2022/12/02 02:16:34;;;;;;;49.42;14.88;;;5.20;99.90;;;;;;4995751;28;20057;-68
2022/12/02 02:19:01;;;;;;;46.38;14.70;;;5.20;99.90;;;;;;4995573;28;20061;-68
2022/12/02 02:21:35;;;;;;;41.67;14.18;;;5.10;99.90;;;;;;4995720;28;20027;-68
2022/12/02 02:24:01;;;;;;;41.58;14.55;;;5.20;99.90;;;;;;4995589;28;20080;-68
2022/12/02 02:26:26;;;;;;;50.05;15.70;;;5.20;99.90;;;;;;4997132;28;20036;-68
2022/12/02 02:28:52;;;;;;;41.40;15.18;;;5.30;99.90;;;;;;4996745;28;20027;-68
2022/12/02 02:31:18;;;;;;;51.15;17.52;;;5.40;99.90;;;;;;4995526;28;20033;-68
2022/12/02 02:33:45;;;;;;;50.75;15.30;;;5.40;99.90;;;;;;4995317;28;20085;-68
2022/12/02 02:36:11;;;;;;;47.17;15.55;;;5.30;99.90;;;;;;4995706;28;20033;-68
2022/12/02 02:38:37;;;;;;;41.47;14.07;;;5.30;99.90;;;;;;4995638;28;20026;-68
2022/12/02 02:41:03;;;;;;;51.20;15.98;;;5.40;99.90;;;;;;4995352;28;20045;-68
2022/12/02 02:43:30;;;;;;;43.35;14.52;;;5.20;99.90;;;;;;4995026;28;20565;-68
2022/12/02 02:45:57;;;;;;;40.55;14.38;;;5.30;99.90;;;;;;4995802;28;20022;-68
2022/12/02 02:48:23;;;;;;;46.60;15.32;;;5.30;99.90;;;;;;4995177;28;20022;-68
2022/12/02 02:50:49;;;;;;;47.42;14.57;;;5.30;99.90;;;;;;4995065;28;20155;-68
2022/12/02 02:53:18;;;;;;;46.60;14.00;;;5.20;99.90;;;;;;4995026;28;20037;-68
2022/12/02 02:55:44;;;;;;;46.90;13.82;;;5.20;99.90;;;;;;4994943;28;20108;-68
2022/12/02 02:58:15;;;;;;;46.97;16.15;;;5.20;99.90;;;;;;4995801;28;20074;-68
2022/12/02 03:00:44;;;;;;;46.80;14.53;;;5.20;99.90;;;;;;4994941;28;20026;-68
2022/12/02 03:03:13;;;;;;;42.90;14.00;;;5.20;99.90;;;;;;4995142;28;20025;-68
2022/12/02 03:05:39;;;;;;;45.60;14.32;;;5.20;99.90;;;;;;4996127;28;20030;-68
2022/12/02 03:08:06;;;;;;;43.90;12.90;;;5.30;99.90;;;;;;4996210;28;20026;-68
2022/12/02 03:10:32;;;;;;;37.83;12.55;;;5.30;99.90;;;;;;4994796;28;20030;-68
2022/12/02 03:12:58;;;;;;;44.40;14.70;;;5.20;99.90;;;;;;4994632;28;20045;-68
2022/12/02 03:15:26;;;;;;;37.60;14.27;;;5.20;99.90;;;;;;4994883;28;20038;-68
2022/12/02 03:17:52;;;;;;;38.08;13.88;;;5.20;99.90;;;;;;4994644;28;20436;-68
2022/12/02 03:20:19;;;;;;;44.33;13.45;;;5.30;99.90;;;;;;4994765;28;20035;-68
2022/12/02 03:22:44;;;;;;;36.95;12.85;;;5.20;99.90;;;;;;4993693;28;20022;-68
2022/12/02 03:25:10;;;;;;;33.63;12.30;;;5.10;99.90;;;;;;4994801;28;20029;-68
2022/12/02 03:27:36;;;;;;;40.05;14.48;;;5.10;99.90;;;;;;4994477;28;20019;-68
2022/12/02 03:30:03;;;;;;;41.55;14.18;;;5.10;99.90;;;;;;4994555;28;20023;-68
2022/12/02 03:32:28;;;;;;;35.20;13.07;;;5.10;99.90;;;;;;4995541;28;20202;-68
2022/12/02 03:34:54;;;;;;;38.08;12.90;;;5.10;99.90;;;;;;4994322;28;20064;-68
2022/12/02 03:37:21;;;;;;;35.50;13.35;;;5.10;99.90;;;;;;4994237;28;20026;-68
2022/12/02 03:39:47;;;;;;;37.97;12.70;;;4.90;99.90;;;;;;4995005;28;20030;-68
2022/12/02 03:42:13;;;;;;;35.88;13.77;;;4.90;99.90;;;;;;4994237;28;20026;-68
2022/12/02 03:44:39;;;;;;;40.00;13.27;;;5.10;99.90;;;;;;4994385;28;20033;-69
2022/12/02 03:47:04;;;;;;;37.95;13.68;;;5.20;99.90;;;;;;4994631;28;20069;-69
2022/12/02 03:49:32;;;;;;;37.50;12.18;;;5.00;99.90;;;;;;4995214;28;20101;-69
2022/12/02 03:51:58;;;;;;;35.17;12.02;;;5.00;99.90;;;;;;4994845;28;20494;-69
2022/12/02 03:54:24;;;;;;;36.67;13.65;;;5.10;99.90;;;;;;4993827;28;20061;-69
2022/12/02 03:56:49;;;;;;;38.63;12.40;;;5.00;99.90;;;;;;4994182;28;20034;-69
2022/12/02 03:59:26;;;;;;;31.35;12.25;;;5.20;99.90;;;;;;4993766;28;20026;-69
2022/12/02 04:01:51;;;;;;;32.50;12.55;;;5.10;99.90;;;;;;4993857;28;20030;-69
2022/12/02 04:04:17;;;;;;;33.63;12.88;;;4.90;99.90;;;;;;4994571;28;20022;-69
2022/12/02 04:06:42;;;;;;;36.70;12.35;;;4.90;99.90;;;;;;4993613;28;20121;-69
2022/12/02 04:09:08;;;;;;;32.75;11.23;;;5.00;99.90;;;;;;4993980;28;20465;-69
2022/12/02 04:11:33;;;;;;;36.03;12.32;;;4.70;99.90;;;;;;4994150;28;20493;-69
2022/12/02 04:13:59;;;;;;;36.95;12.65;;;4.80;99.90;;;;;;4993622;28;20045;-70
2022/12/02 04:16:24;;;;;;;33.65;12.65;;;4.80;99.90;;;;;;4993458;28;20029;-70
2022/12/02 04:18:50;;;;;;;37.10;12.60;;;4.90;99.90;;;;;;4993413;28;20030;-70
2022/12/02 04:21:15;;;;;;;28.75;10.02;;;4.90;99.90;;;;;;4994705;28;20025;-70
2022/12/02 04:23:41;;;;;;;35.92;11.77;;;5.10;99.90;;;;;;4993983;28;20073;-70
2022/12/02 04:26:06;;;;;;;28.60;11.73;;;5.10;99.90;;;;;;4994216;28;20072;-70
2022/12/02 04:28:32;;;;;;;33.80;11.52;;;5.10;99.90;;;;;;4994520;28;20105;-70
2022/12/02 04:30:58;;;;;;;33.63;11.32;;;5.00;99.90;;;;;;4994754;28;20042;-70
2022/12/02 04:33:23;;;;;;;32.13;10.30;;;4.70;99.90;;;;;;4993158;28;20026;-70
2022/12/02 04:35:49;;;;;;;34.30;11.82;;;4.70;99.90;;;;;;4994325;28;20169;-70
2022/12/02 04:38:14;;;;;;;32.90;11.25;;;4.80;99.90;;;;;;4993171;28;20023;-70
2022/12/02 04:40:40;;;;;;;27.30;11.30;;;4.80;99.90;;;;;;4993212;28;20053;-70
2022/12/02 04:43:06;;;;;;;26.63;10.60;;;4.70;99.90;;;;;;4994579;28;20026;-70
2022/12/02 04:45:32;;;;;;;28.15;10.98;;;5.00;99.90;;;;;;4993812;28;20022;-70
2022/12/02 04:47:57;;;;;;;31.13;11.88;;;5.00;99.90;;;;;;4993027;28;20105;-70
2022/12/02 04:50:23;;;;;;;28.90;10.93;;;4.90;99.90;;;;;;4993254;28;20022;-70
2022/12/02 04:52:48;;;;;;;33.85;11.07;;;5.00;99.90;;;;;;4994511;28;20030;-70
2022/12/02 04:55:14;;;;;;;33.63;10.95;;;4.80;99.90;;;;;;4994155;28;20054;-70
2022/12/02 04:57:40;;;;;;;32.28;11.30;;;4.80;99.90;;;;;;4992860;28;20026;-70
2022/12/02 05:00:06;;;;;;;29.80;10.00;;;4.90;99.90;;;;;;4994070;28;20441;-70
2022/12/02 05:02:32;;;;;;;32.08;11.07;;;5.10;99.90;;;;;;4992853;28;20604;-70
2022/12/02 05:04:58;;;;;;;33.22;12.20;;;5.10;99.90;;;;;;4992767;28;20043;-70
2022/12/02 05:07:24;;;;;;;26.58;10.43;;;5.10;99.90;;;;;;4992726;28;20117;-70
2022/12/02 05:09:49;;;;;;;31.05;11.75;;;5.00;99.90;;;;;;4992779;28;20073;-70
2022/12/02 05:12:15;;;;;;;24.38;9.98;;;5.00;99.90;;;;;;4993938;28;20026;-70
2022/12/02 05:14:41;;;;;;;28.60;10.57;;;4.90;99.90;;;;;;4993620;28;20042;-70
2022/12/02 05:17:06;;;;;;;25.13;9.57;;;4.80;99.90;;;;;;4993957;28;20058;-70
2022/12/02 05:19:32;;;;;;;28.60;10.18;;;4.70;99.90;;;;;;4993785;28;20042;-70
2022/12/02 05:21:57;;;;;;;27.88;10.90;;;4.60;99.90;;;;;;4994217;28;20054;-70
2022/12/02 05:24:23;;;;;;;28.90;11.15;;;4.50;99.90;;;;;;4993370;28;20080;-69
2022/12/02 05:26:48;;;;;;;26.42;9.75;;;4.60;99.90;;;;;;4992739;28;20107;-70
2022/12/02 05:29:14;;;;;;;28.58;10.30;;;4.80;99.90;;;;;;4992871;28;20033;-70
2022/12/02 05:31:39;;;;;;;28.65;10.93;;;4.90;99.90;;;;;;4994377;28;20030;-70
2022/12/02 05:34:05;;;;;;;26.55;9.90;;;5.00;99.90;;;;;;4993088;28;20030;-69
2022/12/02 05:36:30;;;;;;;20.58;8.25;;;5.10;99.90;;;;;;4992796;28;20077;-70
2022/12/02 05:38:56;;;;;;;26.40;9.88;;;5.00;99.90;;;;;;4992452;28;20033;-70
2022/12/02 05:41:21;;;;;;;26.25;10.65;;;4.90;99.90;;;;;;4992580;28;20018;-70
2022/12/02 05:43:47;;;;;;;25.38;10.25;;;4.80;99.90;;;;;;4992405;28;20014;-70
2022/12/02 05:46:15;;;;;;;23.83;9.60;;;4.70;99.90;;;;;;4993717;28;20029;-70
2022/12/02 05:48:41;;;;;;;25.15;9.43;;;4.70;99.90;;;;;;4997559;28;20031;-70
2022/12/02 05:51:15;;;;;;;21.02;8.80;;;4.60;99.90;;;;;;4996860;28;20034;-70
2022/12/02 05:53:43;;;;;;;24.13;8.85;;;4.70;99.90;;;;;;4997713;28;20029;-70
2022/12/02 05:56:12;;;;;;;27.63;9.82;;;4.80;99.90;;;;;;4997489;28;20110;-70
2022/12/02 05:58:39;;;;;;;27.83;10.20;;;4.90;99.90;;;;;;4997307;28;20022;-70
2022/12/02 06:01:20;;;;;;;24.73;9.85;;;4.90;99.90;;;;;;4997473;28;20026;-70
2022/12/02 06:03:47;;;;;;;23.23;8.35;;;4.90;99.90;;;;;;4997532;28;20029;-70
2022/12/02 06:06:14;;;;;;;21.08;8.75;;;5.00;99.90;;;;;;4997181;28;20152;-70
2022/12/02 06:08:41;;;;;;;24.60;9.13;;;5.00;99.90;;;;;;4997190;28;20026;-70
2022/12/02 06:11:30;;;;;;;25.60;9.52;;;4.90;99.90;;;;;;4996527;28;20027;-70
2022/12/02 06:14:02;;;;;;;19.50;8.60;;;5.00;99.90;;;;;;4997739;28;20156;-69
2022/12/02 06:16:29;;;;;;;;;;;4.90;99.90;;;;;;4996291;28;20385;-69
2022/12/02 06:18:54;;;;;;;22.33;9.63;;;4.80;99.90;;;;;;4997027;28;19996;-69
2022/12/02 06:21:21;;;;;;;19.92;8.20;;;4.80;99.90;;;;;;4995708;28;20062;-69
2022/12/02 06:23:54;;;;;;;19.45;8.27;;;4.90;99.90;;;;;;4995616;28;20543;-69
2022/12/02 06:26:21;;;;;;;18.73;8.30;;;4.80;99.90;;;;;;4998012;28;20026;-69
2022/12/02 06:28:50;;;;;;;20.73;8.68;;;4.80;99.90;;;;;;4996970;28;20029;-69
2022/12/02 06:31:24;;;;;;;19.45;8.25;;;4.80;99.90;;;;;;4995763;28;20025;-70
2022/12/02 06:33:52;;;;;;;21.48;8.00;;;4.70;99.90;;;;;;4996182;28;20030;-70
2022/12/02 06:36:32;;;;;;;19.92;8.07;;;4.70;99.90;;;;;;4999835;28;20018;-70
2022/12/02 06:39:08;;;;;;;21.90;8.88;;;4.70;99.90;;;;;;4998457;28;20040;-70
2022/12/02 06:41:36;;;;;;;19.25;8.45;;;4.60;99.90;;;;;;4996953;28;20134;-70
2022/12/02 06:47:31;;;;;;;21.88;8.77;;;4.80;99.90;;;;;;4997054;28;20033;-70
2022/12/02 06:50:17;;;;;;;19.63;8.55;;;4.90;99.90;;;;;;4996472;28;20027;-70
2022/12/02 06:52:45;;;;;;;22.70;7.95;;;4.70;99.90;;;;;;4985662;28;20386;-70
2022/12/02 06:55:33;;;;;;;21.05;9.00;;;4.70;99.90;;;;;;4996372;28;20043;-70
2022/12/02 06:58:13;;;;;;;25.02;9.43;;;4.50;99.90;;;;;;4993776;28;20034;-70
2022/12/02 07:00:39;;;;;;;30.52;8.63;;;4.50;99.90;;;;;;4995096;28;20029;-70
2022/12/02 07:03:26;;;;;;;18.83;8.05;;;4.50;99.90;;;;;;4996115;28;20029;-70
2022/12/02 07:05:57;;;;;;;20.38;7.68;;;4.60;99.90;;;;;;4995809;28;20031;-70
2022/12/02 07:08:25;;;;;;;20.50;8.80;;;4.50;99.90;;;;;;4995070;28;20026;-70
2022/12/02 07:10:50;;;;;;;24.50;9.65;;;4.50;99.90;;;;;;4994838;28;20038;-70
2022/12/02 07:13:18;;;;;;;20.65;8.82;;;4.50;99.90;;;;;;4994595;28;20032;-70
2022/12/02 07:15:44;;;;;;;22.42;9.43;;;4.50;99.90;;;;;;4996352;28;20030;-70
2022/12/02 07:18:20;;;;;;;17.15;7.90;;;4.60;99.90;;;;;;4994706;28;20065;-70
2022/12/02 07:20:47;;;;;;;23.08;8.68;;;4.60;99.90;;;;;;4995262;28;20060;-70
2022/12/02 07:23:15;;;;;;;23.38;8.70;;;4.40;99.90;;;;;;4995839;28;20026;-69
2022/12/02 07:25:50;;;;;;;21.42;8.98;;;4.30;99.90;;;;;;4994824;28;20027;-70
2022/12/02 07:28:18;;;;;;;19.98;8.85;;;4.20;99.90;;;;;;4994533;28;20026;-70
2022/12/02 07:30:52;;;;;;;22.17;8.50;;;4.10;99.90;;;;;;4995643;28;20030;-70
2022/12/02 07:33:17;;;;;;;18.05;8.60;;;4.00;99.90;;;;;;4995616;28;20073;-69
2022/12/02 07:35:43;;;;;;;17.55;8.25;;;4.10;99.90;;;;;;4995753;28;20053;-70
2022/12/02 07:38:08;;;;;;;21.48;9.93;;;4.00;99.90;;;;;;4995496;28;20033;-70
2022/12/02 07:40:34;;;;;;;21.20;9.60;;;3.70;99.90;;;;;;4995555;28;20023;-70
2022/12/02 07:42:59;;;;;;;26.27;10.20;;;3.80;99.90;;;;;;4995502;28;20023;-70
2022/12/02 07:45:25;;;;;;;23.05;9.43;;;3.70;99.90;;;;;;5000749;28;20061;-70
2022/12/02 07:47:50;;;;;;;24.98;10.38;;;4.00;99.90;;;;;;4994721;28;20026;-70
2022/12/02 07:50:17;;;;;;;23.55;9.80;;;4.10;99.90;;;;;;4995917;28;20033;-70
2022/12/02 07:52:42;;;;;;;23.23;9.70;;;4.30;99.90;;;;;;4995229;28;20068;-70
2022/12/02 07:55:08;;;;;;;25.58;10.32;;;4.10;99.90;;;;;;4994517;28;20062;-70
2022/12/02 07:57:34;;;;;;;23.48;9.68;;;4.00;99.90;;;;;;4995603;28;20038;-70
2022/12/02 07:59:59;;;;;;;29.58;10.80;;;4.00;99.90;;;;;;4994659;28;20040;-70
2022/12/02 08:02:25;;;;;;;24.13;10.27;;;3.90;99.90;;;;;;4993794;28;20030;-70
2022/12/02 08:04:50;;;;;;;23.45;10.13;;;4.00;99.90;;;;;;4993718;28;20019;-70
2022/12/02 08:07:16;;;;;;;24.85;10.40;;;4.00;99.90;;;;;;4993774;28;20049;-70
2022/12/02 08:09:41;;;;;;;25.00;10.25;;;4.00;99.90;;;;;;4993702;28;20026;-70
2022/12/02 08:12:07;;;;;;;25.83;11.02;;;4.00;99.90;;;;;;4994900;28;20077;-70
2022/12/02 08:14:32;;;;;;;27.17;11.13;;;4.10;99.90;;;;;;4993457;28;20038;-70
2022/12/02 08:16:58;;;;;;;24.52;10.75;;;4.20;99.90;;;;;;4994818;28;20037;-70
2022/12/02 08:19:23;;;;;;;27.20;11.30;;;4.10;99.90;;;;;;4994527;28;20033;-69
2022/12/02 08:21:49;;;;;;;25.15;10.65;;;4.10;99.90;;;;;;4993463;28;20126;-69
2022/12/02 08:24:14;;;;;;;25.10;10.40;;;4.00;99.90;;;;;;4994147;28;20025;-69
2022/12/02 08:26:42;;;;;;;28.73;10.50;;;4.00;99.90;;;;;;4994884;28;20029;-69
2022/12/02 08:29:08;;;;;;;32.75;11.75;;;4.00;99.90;;;;;;4993351;28;20026;-69
2022/12/02 08:31:33;;;;;;;25.63;10.07;;;3.90;99.90;;;;;;4993395;28;20076;-69
2022/12/02 08:33:59;;;;;;;26.42;11.43;;;3.90;99.90;;;;;;4993275;28;20070;-68
2022/12/02 08:36:24;;;;;;;31.08;12.18;;;3.80;99.90;;;;;;4994759;28;20061;-68
2022/12/02 08:38:50;;;;;;;23.05;10.02;;;3.90;99.90;;;;;;4993103;28;20038;-68
2022/12/02 08:41:16;;;;;;;26.58;10.93;;;3.80;99.90;;;;;;4994363;28;20019;-68
2022/12/02 08:43:42;;;;;;;29.30;10.82;;;3.90;99.90;;;;;;4993409;28;20069;-68
2022/12/02 08:46:08;;;;;;;25.45;11.50;;;3.90;99.90;;;;;;4993328;28;20029;-68
2022/12/02 08:48:33;;;;;;;31.13;11.45;;;3.80;99.90;;;;;;4993858;28;20027;-68
2022/12/02 08:50:59;;;;;;;29.48;10.57;;;3.60;99.90;;;;;;4994873;28;20050;-68
2022/12/02 08:53:25;;;;;;;27.23;11.55;;;3.70;99.90;;;;;;4996672;28;20080;-69
2022/12/02 08:55:50;;;;;;;30.52;11.45;;;3.90;99.90;;;;;;4998041;28;20022;-68
2022/12/02 08:58:16;;;;;;;25.88;10.55;;;3.90;99.90;;;;;;4993410;28;20101;-68
2022/12/02 09:00:42;;;;;;;29.95;11.82;;;4.00;99.90;;;;;;4992799;28;20026;-67
2022/12/02 09:03:09;;;;;;;28.77;10.80;;;3.90;99.90;;;;;;4992868;28;20026;-69
2022/12/02 09:05:36;;;;;;;26.23;10.30;;;3.90;99.90;;;;;;4992833;28;20069;-68
2022/12/02 09:08:03;;;;;;;30.65;11.43;;;3.80;99.90;;;;;;4992905;28;20038;-68
2022/12/02 09:10:28;;;;;;;34.70;12.07;;;3.40;99.90;;;;;;4994636;28;20034;-68
2022/12/02 09:12:54;;;;;;;28.17;11.30;;;3.50;99.90;;;;;;4992752;28;20041;-68
2022/12/02 09:15:20;;;;;;;28.08;12.15;;;3.70;99.90;;;;;;4992542;28;20037;-69
2022/12/02 09:17:46;;;;;;;29.40;11.88;;;3.60;99.90;;;;;;4992672;28;20044;-69
2022/12/02 09:20:12;;;;;;;25.25;10.50;;;3.80;99.90;;;;;;4992887;28;20089;-69
2022/12/02 09:22:38;;;;;;;31.50;12.68;;;3.90;99.90;;;;;;4997531;28;20026;-69
2022/12/02 09:25:05;;;;;;;27.30;11.07;;;3.90;99.90;;;;;;4996587;28;20113;-69
2022/12/02 09:27:30;;;;;;;28.17;10.82;;;3.90;99.90;;;;;;4997777;28;20034;-68
2022/12/02 09:29:56;;;;;;;27.67;12.10;;;3.70;99.90;;;;;;4996649;28;20072;-69
2022/12/02 09:32:21;;;;;;;30.92;11.38;;;3.70;99.90;;;;;;4997750;28;20045;-68
2022/12/02 09:34:47;;;;;;;24.63;10.13;;;3.80;99.90;;;;;;4997722;28;20516;-69
2022/12/02 09:37:12;;;;;;;30.50;11.68;;;3.70;99.90;;;;;;4997730;28;20026;-69
2022/12/02 09:39:38;;;;;;;23.13;9.68;;;3.70;99.90;;;;;;4997006;28;20022;-68
2022/12/02 09:42:04;;;;;;;25.85;10.88;;;3.60;99.90;;;;;;4997021;28;20028;-68
2022/12/02 09:44:30;;;;;;;30.52;11.30;;;3.70;99.90;;;;;;4996695;28;20217;-68
2022/12/02 09:46:56;;;;;;;28.63;11.63;;;3.80;99.90;;;;;;4997921;28;20050;-69
2022/12/02 09:49:21;;;;;;;27.13;10.93;;;3.80;99.90;;;;;;4997589;28;20464;-69
2022/12/02 09:51:48;;;;;;;29.23;12.07;;;3.80;99.90;;;;;;4996270;28;20033;-69
2022/12/02 09:54:15;;;;;;;25.98;10.93;;;3.90;99.90;;;;;;4997708;28;20026;-69
2022/12/02 09:56:41;;;;;;;28.50;11.43;;;4.00;99.90;;;;;;4996244;28;20033;-69
2022/12/02 09:59:13;;;;;;;29.52;11.30;;;4.10;99.90;;;;;;4997915;28;20023;-69
2022/12/02 10:01:42;;;;;;;27.75;11.55;;;4.00;99.90;;;;;;4997495;28;20027;-69
2022/12/02 10:04:09;;;;;;;29.45;11.88;;;4.20;99.90;;;;;;5002810;28;20018;-68
2022/12/02 10:06:34;;;;;;;28.20;12.73;;;4.30;99.90;;;;;;4996895;28;20034;-69
2022/12/02 10:09:00;;;;;;;26.23;11.38;;;4.40;99.90;;;;;;4997621;28;20027;-69
2022/12/02 10:11:33;;;;;;;26.38;11.18;;;4.40;99.90;;;;;;4997229;28;20033;-68
2022/12/02 10:14:01;;;;;;;29.73;12.77;;;4.40;99.90;;;;;;4996423;28;20033;-70
2022/12/02 10:16:27;;;;;;;25.38;9.93;;;4.30;99.90;;;;;;4995854;28;20018;-69
2022/12/02 10:18:58;;;;;;;26.33;11.93;;;4.10;99.90;;;;;;4996563;28;20022;-68
2022/12/02 10:21:24;;;;;;;27.33;10.80;;;4.00;99.90;;;;;;4997035;28;20033;-68
2022/12/02 10:24:03;;;;;;;28.50;11.82;;;4.00;99.90;;;;;;4996581;28;20022;-68
2022/12/02 10:26:48;;;;;;;26.52;11.02;;;4.10;99.90;;;;;;4995647;28;20023;-69
2022/12/02 10:29:17;;;;;;;29.73;11.32;;;4.00;99.90;;;;;;4996612;28;20085;-69
2022/12/02 10:31:54;;;;;;;27.73;11.50;;;4.10;99.90;;;;;;4995294;28;20023;-68
2022/12/02 10:34:21;;;;;;;29.30;11.23;;;4.10;99.90;;;;;;4990842;28;20044;-69
2022/12/02 10:36:47;;;;;;;27.33;11.98;;;3.90;99.90;;;;;;4985240;28;20035;-69
2022/12/02 10:39:29;;;;;;;30.65;12.02;;;4.20;99.90;;;;;;4992511;28;20033;-68
2022/12/02 10:42:06;;;;;;;30.35;12.77;;;4.10;99.90;;;;;;4995416;28;20109;-69
2022/12/02 10:44:34;;;;;;;29.48;12.18;;;4.20;99.90;;;;;;4995675;28;20037;-68
2022/12/02 10:47:28;;;;;;;27.52;10.95;;;4.10;99.90;;;;;;4996597;28;20026;-68
2022/12/02 10:49:56;;;;;;;30.98;11.02;;;4.20;99.90;;;;;;4955758;29;20143;-69
2022/12/02 10:52:36;;;;;;;29.92;12.27;;;4.20;99.90;;;;;;4939853;29;20091;-69
2022/12/02 10:55:04;;;;;;;31.85;12.60;;;4.30;99.90;;;;;;4955833;29;20058;-69
2022/12/02 10:57:32;;;;;;;29.10;11.73;;;4.20;99.90;;;;;;4955599;29;20143;-69
2022/12/02 11:00:00;;;;;;;32.35;12.45;;;4.10;99.90;;;;;;4939476;29;20081;-68
2022/12/02 11:02:32;;;;;;;30.33;12.70;;;4.20;99.90;;;;;;4939306;29;20525;-68
2022/12/02 11:05:05;;;;;;;32.80;12.82;;;4.20;99.90;;;;;;4939349;29;20023;-69
2022/12/02 11:07:30;;;;;;;29.80;11.13;;;4.30;99.90;;;;;;4940117;29;20079;-68
2022/12/02 11:09:56;;;;;;;31.27;12.77;;;4.40;99.90;;;;;;4946885;28;20031;-67
2022/12/02 11:12:30;;;;;;;27.13;10.60;;;4.40;99.90;;;;;;4939796;29;20019;-69
2022/12/02 11:14:56;;;;;;;34.00;12.38;;;4.40;99.90;;;;;;4955361;29;20031;-69
2022/12/02 11:17:47;;;;;;;27.42;12.27;;;4.20;99.90;;;;;;4939143;29;20134;-69
2022/12/02 11:20:30;;;;;;;28.92;10.73;;;4.20;99.90;;;;;;4955469;29;20079;-68
2022/12/02 11:26:55;;;;;;;28.48;12.23;;;4.10;99.90;;;;;;4975799;28;20061;-68
2022/12/02 11:29:20;;;;;;;28.35;11.05;;;4.20;99.90;;;;;;5010832;28;20030;-68
2022/12/02 11:32:03;;;;;;;26.55;11.15;;;4.30;99.90;;;;;;4994530;28;20027;-69
2022/12/02 11:34:45;;;;;;;29.40;10.98;;;4.10;99.90;;;;;;4994767;28;20089;-68
2022/12/02 11:39:56;;;;;;;25.33;10.65;;;4.20;99.90;;;;;;4996023;28;20084;-68
2022/12/02 11:42:24;;;;;;;30.35;11.77;;;4.30;99.90;;;;;;4995508;28;20031;-68
2022/12/02 11:44:50;;;;;;;34.45;11.88;;;4.30;99.90;;;;;;4994660;28;20130;-67
2022/12/02 11:47:29;;;;;;;31.48;11.93;;;4.30;99.90;;;;;;4995294;28;20029;-68
2022/12/02 11:50:18;;;;;;;25.38;11.60;;;4.40;99.90;;;;;;4994118;28;20081;-68
2022/12/02 11:52:50;;;;;;;22.45;9.88;;;4.50;99.90;;;;;;4995305;28;20065;-68
2022/12/02 11:55:19;;;;;;;27.77;11.25;;;4.50;99.90;;;;;;4995429;28;20046;-68
2022/12/02 11:57:54;;;;;;;28.02;11.73;;;4.50;99.90;;;;;;4995268;28;20018;-67
2022/12/02 12:00:27;;;;;;;23.52;9.88;;;4.50;99.90;;;;;;4994111;28;20030;-67
2022/12/02 12:03:13;;;;;;;26.88;11.38;;;4.40;99.90;;;;;;4995309;28;20022;-67
2022/12/02 12:05:41;;;;;;;25.92;10.93;;;4.40;99.90;;;;;;4994028;28;20029;-67
2022/12/02 12:08:07;;;;;;;27.30;11.27;;;4.40;99.90;;;;;;4995205;28;20072;-68
2022/12/02 12:10:35;;;;;;;25.00;10.77;;;4.20;99.90;;;;;;4994855;28;20054;-68
2022/12/02 12:13:26;;;;;;;24.77;10.52;;;4.20;99.90;;;;;;4994952;28;20030;-69
2022/12/02 12:15:52;;;;;;;22.50;9.10;;;4.10;99.90;;;;;;4994896;28;20105;-69
2022/12/02 12:18:44;;;;;;;23.23;9.93;;;4.20;99.90;;;;;;4993481;28;20125;-69
2022/12/02 12:21:12;;;;;;;22.90;9.23;;;4.20;99.90;;;;;;4994812;28;20036;-69
2022/12/02 12:23:40;;;;;;;21.25;9.70;;;4.20;99.90;;;;;;4993605;28;20026;-69
2022/12/02 12:26:07;;;;;;;23.40;10.15;;;4.20;99.90;;;;;;4994658;28;20057;-69
2022/12/02 12:28:36;;;;;;;23.38;9.75;;;4.20;99.90;;;;;;4993480;28;20018;-69
2022/12/02 12:31:05;;;;;;;19.65;8.25;;;4.10;99.90;;;;;;4994562;28;20034;-69
2022/12/02 12:33:31;;;;;;;21.35;9.50;;;4.10;99.90;;;;;;4993921;28;20057;-68
2022/12/02 12:36:21;;;;;;;21.23;9.48;;;3.90;99.90;;;;;;4994792;28;20026;-68
2022/12/02 12:38:46;;;;;;;22.95;8.50;;;4.20;99.90;;;;;;4994648;28;20041;-69
2022/12/02 12:41:12;;;;;;;22.73;8.68;;;4.20;99.90;;;;;;4993384;28;20097;-68
2022/12/02 12:43:37;;;;;;;19.13;8.55;;;4.00;99.90;;;;;;4994209;28;20022;-69
2022/12/02 12:46:03;;;;;;;17.40;8.50;;;4.00;99.90;;;;;;4993386;28;20496;-69
2022/12/02 12:48:29;;;;;;;24.80;9.98;;;3.90;99.90;;;;;;4993072;28;20046;-69
2022/12/02 12:50:54;;;;;;;18.25;9.25;;;4.10;99.90;;;;;;4993359;28;20022;-69
2022/12/02 12:53:20;;;;;;;21.58;8.18;;;4.00;99.90;;;;;;5017403;22;20041;-65
2022/12/02 12:55:45;;;;;;;24.23;8.77;;;4.10;99.90;;;;;;4994206;28;20061;-65
2022/12/02 12:58:11;;;;;;;21.50;9.63;;;4.10;99.90;;;;;;5009239;28;20022;-65
2022/12/02 13:00:36;;;;;;;19.45;8.65;;;4.30;99.90;;;;;;4994082;28;20027;-65